תחנות METAR סמוכות

 

LLBG - Ben-Gurion(Civ/M, Israel
Distance from station: 'מ 83km
עודכן: 15/05/2021 17:20
בהיר
בהיר
 רוח מ 'צמ
רוח: 'צמ 15 km/h
טמפרטורה: 25°C
נקודת הטל: 15°C
לחות: 54%
ברומטר: 1010 hPa
סיכום: בהיר
ראות: greater than 10 km
2021/05/15 14:20 LLBG 151420Z 32008KT 290V360 CAVOK 25/15 Q1010 NOSIG
LLSD - Sde Dov Airport, Israel
Distance from station: 'מ 75km
עודכן: 30/06/2019 23:50
לא מעודכן
מעונן חלקית
מעונן חלקית
 רוח מ משתנה
רוח: משתנה 6 km/h
טמפרטורה: 27°C
עומס חום: 30°C
נקודת הטל: 23°C
לחות: 79%
ברומטר: 1007 hPa
עננים: מעונן חלקית
ראות: 10 km
Cloud details: מעונן חלקית 518 m
2019/06/30 20:50 LLSD 302050Z VRB03KT 9999 SCT017 27/23 Q1007
 
LLHA - Haifa (isr-Afb), Israel
Distance from station: 'צמ 129km
עודכן: 15/05/2021 16:50
בהיר
בהיר
 רוח מ 'צמ
רוח: 'צמ 15 km/h
טמפרטורה: 24°C
נקודת הטל: 17°C
לחות: 65%
ברומטר: 1011 hPa
סיכום: בהיר
ראות: greater than 10 km
2021/05/15 13:50 LLHA 151350Z 31008KT 280V340 CAVOK 24/17 Q1011
LLIB - Ben Ya Akov, Israel
Distance from station: 'צמ 183km
עודכן: 15/05/2021 16:50
בהיר
בהיר
 רוח מ 'צצמ
רוח: 'צצמ 22 km/h
טמפרטורה: 30°C
עומס חום: 29°C
נקודת הטל: 15°C
לחות: 40%
ברומטר: 1010 hPa
סיכום: בהיר
ראות: greater than 10 km
2021/05/15 13:50 LLIB 151350Z AUTO 02012KT CAVOK 30/15 Q1010
 
LLOV - Ovda (isr-Afb/Ci, Israel
Distance from station: 'דדמ 246km
עודכן: 31/03/2019 22:50
לא מעודכן
בהיר
בהיר
 רוח מ 'מדמ
רוח: 'מדמ 13 km/h
טמפרטורה: 12°C
נקודת הטל: 0°C
לחות: 44%
ברומטר: 1012 hPa
סיכום: בהיר
ראות: greater than 10 km
2019/03/31 19:50 LLOV 311950Z 24007KT CAVOK 12/00 Q1012
LLET - Elat/J. Hozman(A, Israel
Distance from station: 'דדמ 287km
עודכן: 18/03/2019 17:50
לא מעודכן
בהיר
בהיר
 רוח מ 'צצמ
רוח: 'צצמ 30 km/h
טמפרטורה: 24°C
נקודת הטל: -1°C
לחות: 19%
ברומטר: 1016 hPa
סיכום: בהיר
ראות: greater than 10 km
2019/03/18 15:50 LLET 181550Z 02016KT CAVOK 24/M01 Q1016
 
LCLK - Larnaca/Larnax A, Cyprus
Distance from station: 'צ 321km
עודכן: 15/05/2021 17:30
Few Clouds
Few Clouds
 רוח מ 'ד
רוח: 'ד 20 km/h
טמפרטורה: 25°C
נקודת הטל: 19°C
לחות: 69%
ברומטר: 1010 hPa
עננים: Few Clouds
ראות: 10 km
Cloud details: Few Clouds 914 m
2021/05/15 14:30 LCLK 151430Z 18011KT 9999 FEW030 25/19 Q1010 NOSIG